Time;durP1;ratioP1;P1;durP2;ratioP2;P2;SDS_P1;SDS_P2;PMS_P1;PMS_P2;Temp;Humidity;BMP_temperature;BMP_pressure;BME280_temperature;BME280_humidity;BME280_pressure;Samples;Min_cycle;Max_cycle;Signal;HPM_P1;HPM_P2
2021/12/26 00:01:20;;;;;;;7.77;7.17;;;;;;;4.76;97.57;94428.63;4406192;32;20298;-66
2021/12/26 00:03:45;;;;;;;8.47;7.67;;;;;;;4.69;97.32;94430.78;4407622;32;20184;-66
2021/12/26 00:06:15;;;;;;;8.60;7.90;;;;;;;4.70;97.36;94425.25;4409377;32;20306;-66
2021/12/26 00:08:44;;;;;;;7.83;7.13;;;;;;;4.68;97.39;94427.38;4416258;32;20207;-66
2021/12/26 00:11:10;;;;;;;8.10;7.30;;;;;;;4.74;97.27;94421.00;4419247;32;20390;-66
2021/12/26 00:13:37;;;;;;;7.37;6.77;;;;;;;4.63;97.25;94419.53;4413639;32;20279;-66
2021/12/26 00:16:06;;;;;;;8.10;7.40;;;;;;;4.63;97.28;94419.53;4420164;32;20320;-66
2021/12/26 00:18:32;;;;;;;8.33;7.63;;;;;;;4.63;97.05;94419.53;4416593;32;20294;-66
2021/12/26 00:20:57;;;;;;;8.00;7.30;;;;;;;4.66;97.09;94424.25;4405474;32;20359;-66
2021/12/26 00:23:23;;;;;;;7.67;7.07;;;;;;;4.88;96.70;94420.34;4419066;32;20286;-66
2021/12/26 00:25:49;;;;;;;7.77;7.17;;;;;;;4.83;96.20;94415.91;4412428;32;20239;-66
2021/12/26 00:28:15;;;;;;;7.00;6.50;;;;;;;4.60;96.71;94420.09;4414772;32;20191;-66
2021/12/26 00:30:42;;;;;;;7.70;7.00;;;;;;;4.61;96.84;94416.41;4404631;32;20305;-66
2021/12/26 00:33:07;;;;;;;8.37;7.67;;;;;;;4.60;96.63;94424.56;4409964;32;20279;-66
2021/12/26 00:35:32;;;;;;;8.20;7.50;;;;;;;4.64;96.97;94415.84;4418468;32;20305;-66
2021/12/26 00:37:58;;;;;;;8.90;8.10;;;;;;;4.60;97.00;94414.84;4418388;32;20192;-66
2021/12/26 00:40:26;;;;;;;8.53;7.73;;;;;;;4.53;96.89;94424.91;4406714;32;20346;-65
2021/12/26 00:42:51;;;;;;;9.20;8.33;;;;;;;4.43;96.98;94435.50;4418136;32;20188;-66
2021/12/26 00:45:17;;;;;;;8.87;8.07;;;;;;;4.29;97.54;94424.06;4414854;32;20313;-66
2021/12/26 00:47:42;;;;;;;9.10;8.30;;;;;;;4.35;98.19;94421.13;4418337;32;20196;-66
2021/12/26 00:50:11;;;;;;;9.30;8.40;;;;;;;4.22;98.31;94418.34;4416048;32;20202;-66
2021/12/26 00:52:36;;;;;;;9.93;9.03;;;;;;;4.27;98.38;94419.09;4408924;32;20183;-66
2021/12/26 00:55:04;;;;;;;8.50;7.80;;;;;;;4.27;98.68;94424.34;4410634;32;20294;-66
2021/12/26 00:57:30;;;;;;;11.23;10.13;;;;;;;4.41;98.51;94419.22;4406810;32;20243;-66
2021/12/26 00:59:55;;;;;;;9.13;8.23;;;;;;;4.36;98.18;94425.31;4405859;32;20295;-66
2021/12/26 01:02:20;;;;;;;14.43;9.60;;;;;;;4.37;98.05;94426.09;4411442;32;20180;-66
2021/12/26 01:04:45;;;;;;;12.23;9.03;;;;;;;4.17;98.32;94428.87;4405825;32;20191;-66
2021/12/26 01:07:27;;;;;;;9.93;9.03;;;;;;;4.19;98.68;94418.88;4411038;32;20187;-66
2021/12/26 01:09:53;;;;;;;11.27;10.07;;;;;;;4.36;98.65;94425.31;4410621;32;20192;-66
2021/12/26 01:12:19;;;;;;;9.80;8.90;;;;;;;4.35;98.24;94429.00;4408720;32;20464;-66
2021/12/26 01:14:51;;;;;;;9.93;9.03;;;;;;;4.39;98.42;94434.47;4420615;32;20305;-65
2021/12/26 01:17:20;;;;;;;11.70;9.37;;;;;;;4.44;98.51;94431.81;4418763;32;20172;-65
2021/12/26 01:19:50;;;;;;;11.13;9.90;;;;;;;4.62;97.98;94425.06;4408274;32;20279;-65
2021/12/26 01:22:17;;;;;;;9.97;9.07;;;;;;;4.36;98.19;94429.78;4409073;32;20330;-65
2021/12/26 01:24:44;;;;;;;15.90;8.87;;;;;;;4.47;98.43;94426.78;4419080;32;20309;-65
2021/12/26 01:27:10;;;;;;;12.00;10.80;;;;;;;4.44;98.59;94426.56;4407850;32;20291;-65
2021/12/26 01:29:36;;;;;;;11.13;10.07;;;;;;;4.48;98.17;94424.94;4410805;32;20298;-66
2021/12/26 01:32:03;;;;;;;14.47;9.47;;;;;;;4.63;97.62;94422.16;4413227;32;20199;-65
2021/12/26 01:34:29;;;;;;;10.50;9.50;;;;;;;4.45;97.84;94436.00;4413820;32;20179;-65
2021/12/26 01:36:55;;;;;;;11.77;10.60;;;;;;;4.50;97.91;94435.97;4411768;32;20298;-65
2021/12/26 01:39:21;;;;;;;11.47;10.37;;;;;;;4.58;98.10;94437.97;4407513;32;20248;-65
2021/12/26 01:41:48;;;;;;;10.43;9.40;;;;;;;4.64;97.89;94443.97;4410935;32;20284;-65
2021/12/26 01:44:15;;;;;;;12.70;11.50;;;;;;;4.55;97.91;94435.13;4417205;32;20195;-65
2021/12/26 01:46:42;;;;;;;11.13;10.13;;;;;;;4.55;97.83;94437.75;4419121;32;20282;-66
2021/12/26 01:49:10;;;;;;;10.13;9.23;;;;;;;4.62;97.56;94438.97;4407559;32;20305;-65
2021/12/26 01:51:36;;;;;;;10.77;9.77;;;;;;;4.61;97.42;94441.88;4407148;32;20283;-65
2021/12/26 01:54:06;;;;;;;11.30;10.30;;;;;;;4.47;98.09;94436.50;4413125;32;20276;-65
2021/12/26 01:56:32;;;;;;;10.77;9.67;;;;;;;4.46;97.90;94434.94;4411749;32;20297;-65
2021/12/26 01:58:57;;;;;;;9.83;8.83;;;;;;;4.53;97.90;94435.41;4418012;32;20342;-65
2021/12/26 02:01:23;;;;;;;10.03;9.00;;;;;;;4.45;98.15;94439.41;4413835;32;20224;-65
2021/12/26 02:03:48;;;;;;;10.30;9.27;;;;;;;4.38;98.25;94438.16;4418463;32;20222;-65
2021/12/26 02:06:15;;;;;;;10.60;9.50;;;;;;;4.39;98.47;94439.72;4418809;32;20184;-65
2021/12/26 02:08:41;;;;;;;9.70;8.80;;;;;;;4.37;98.73;94432.13;4411338;32;20205;-65
2021/12/26 02:11:06;;;;;;;10.07;9.17;;;;;;;4.42;98.87;94426.81;4409490;32;20317;-65
2021/12/26 02:13:37;;;;;;;8.67;7.87;;;;;;;4.53;98.44;94429.37;4419023;32;20299;-65
2021/12/26 02:16:07;;;;;;;10.33;9.33;;;;;;;4.37;98.32;94420.84;4410002;32;20257;-65
2021/12/26 02:18:32;;;;;;;9.87;8.97;;;;;;;4.41;98.94;94422.63;4406832;32;20347;-65
2021/12/26 02:23:41;;;;;;;9.13;8.37;;;;;;;4.49;98.18;94419.41;4413090;32;20314;-66
2021/12/26 02:28:44;;;;;;;9.87;8.97;;;;;;;4.69;97.70;94415.03;4416363;32;20283;-65
2021/12/26 02:31:11;;;;;;;10.30;9.30;;;;;;;4.64;97.37;94415.06;4411855;32;20426;-65
2021/12/26 02:33:36;;;;;;;9.93;9.03;;;;;;;4.61;96.86;94413.00;4409696;32;20343;-66
2021/12/26 02:36:05;;;;;;;9.73;8.87;;;;;;;4.60;97.08;94409.59;4421146;32;20291;-65
2021/12/26 02:38:32;;;;;;;10.93;9.77;;;;;;;4.59;97.51;94413.28;4406995;32;20215;-66
2021/12/26 02:40:57;;;;;;;9.67;8.70;;;;;;;4.63;97.24;94414.28;4419155;32;20287;-65
2021/12/26 02:43:25;;;;;;;10.43;9.43;;;;;;;4.61;96.98;94402.50;4408268;32;20314;-65
2021/12/26 02:45:51;;;;;;;10.30;9.20;;;;;;;4.53;96.98;94406.53;4418157;32;20196;-65
2021/12/26 02:48:17;;;;;;;11.00;10.03;;;;;;;4.46;97.10;94412.09;4403863;32;20344;-65
2021/12/26 02:50:45;;;;;;;10.40;9.43;;;;;;;4.46;97.54;94412.09;4410958;32;20201;-66
2021/12/26 02:53:13;;;;;;;10.20;9.30;;;;;;;4.39;97.81;94408.22;4420253;32;20279;-65
2021/12/26 02:55:39;;;;;;;11.17;9.97;;;;;;;4.48;97.53;94414.44;4408475;32;20296;-66
2021/12/26 02:58:08;;;;;;;11.30;10.20;;;;;;;4.38;97.54;94417.16;4403430;32;20311;-65
2021/12/26 03:00:42;;;;;;;12.33;11.13;;;;;;;4.48;97.34;94414.44;4411359;32;20180;-66
2021/12/26 03:03:08;;;;;;;11.93;10.77;;;;;;;4.42;97.81;94412.91;4413665;32;20293;-65
2021/12/26 03:05:36;;;;;;;12.20;11.00;;;;;;;4.40;97.38;94415.03;4420673;32;20303;-66
2021/12/26 03:08:04;;;;;;;10.93;9.93;;;;;;;4.34;97.74;94421.41;4407710;32;20367;-65
2021/12/26 03:10:29;;;;;;;11.10;10.00;;;;;;;4.52;97.25;94417.31;4417134;32;20276;-65
2021/12/26 03:12:58;;;;;;;11.33;10.30;;;;;;;4.55;97.23;94422.78;4413819;32;20297;-65
2021/12/26 03:15:26;;;;;;;10.40;9.40;;;;;;;4.52;96.99;94433.84;4411515;32;20191;-65
2021/12/26 03:17:52;;;;;;;10.73;9.73;;;;;;;4.60;96.88;94427.19;4419388;32;20350;-65
2021/12/26 03:20:21;;;;;;;10.40;9.40;;;;;;;4.70;96.40;94425.25;4418133;32;20367;-65
2021/12/26 03:22:46;;;;;;;10.53;9.43;;;;;;;4.79;95.69;94428.81;4412881;32;20306;-65
2021/12/26 03:25:15;;;;;;;11.40;10.23;;;;;;;4.49;96.57;94434.38;4415870;32;20279;-65
2021/12/26 03:27:40;;;;;;;10.70;9.63;;;;;;;4.72;96.16;94430.22;4416239;32;20192;-66
2021/12/26 03:30:08;;;;;;;11.20;10.10;;;;;;;4.76;95.56;94426.00;4421311;32;20362;-65
2021/12/26 03:32:34;;;;;;;9.63;8.73;;;;;;;4.63;95.46;94429.25;4415699;32;20172;-65
2021/12/26 03:34:59;;;;;;;9.73;8.83;;;;;;;4.82;95.12;94424.84;4408751;32;20283;-65
2021/12/26 03:37:24;;;;;;;10.80;9.80;;;;;;;4.73;95.27;94423.91;4410872;32;20188;-66
2021/12/26 03:39:50;;;;;;;11.20;10.10;;;;;;;4.69;95.81;94430.78;4419342;32;20292;-65
2021/12/26 03:42:15;;;;;;;10.60;9.60;;;;;;;4.74;95.72;94431.53;4419117;32;20198;-66
2021/12/26 03:44:41;;;;;;;11.07;9.97;;;;;;;4.93;95.10;94436.84;4417098;32;20191;-66
2021/12/26 03:47:06;;;;;;;10.93;9.90;;;;;;;4.66;95.39;94429.50;4415282;32;20183;-66
2021/12/26 03:49:31;;;;;;;11.37;10.27;;;;;;;4.52;96.38;94431.22;4422743;32;20184;-66
2021/12/26 03:51:57;;;;;;;10.53;9.50;;;;;;;4.56;96.63;94434.06;4409956;32;20215;-66
2021/12/26 03:54:22;;;;;;;12.13;10.57;;;;;;;4.50;97.02;94430.72;4419104;32;20199;-66
2021/12/26 03:56:50;;;;;;;10.00;9.00;;;;;;;4.66;96.14;94426.88;4409911;32;20245;-66
2021/12/26 03:59:16;;;;;;;12.67;10.30;;;;;;;4.86;95.39;94420.63;4415582;32;20196;-65
2021/12/26 04:01:42;;;;;;;10.80;9.70;;;;;;;4.81;94.94;94424.06;4417629;32;20283;-66
2021/12/26 04:04:07;;;;;;;11.00;9.60;;;;;;;4.66;95.48;94424.25;4408742;32;20256;-66
2021/12/26 04:06:33;;;;;;;10.83;9.10;;;;;;;4.55;96.16;94422.78;4415590;32;20288;-66
2021/12/26 04:08:58;;;;;;;11.93;10.67;;;;;;;4.58;95.82;94416.16;4406191;32;20267;-66
2021/12/26 04:11:24;;;;;;;10.33;9.33;;;;;;;4.58;95.86;94427.47;4411922;32;20274;-65
2021/12/26 04:13:49;;;;;;;13.40;9.83;;;;;;;4.47;96.59;94429.41;4388871;32;20250;-66
2021/12/26 04:16:15;;;;;;;10.63;9.53;;;;;;;4.41;96.94;94427.88;4408300;32;20184;-65
2021/12/26 04:18:40;;;;;;;13.77;10.77;;;;;;;4.32;96.60;94426.16;4406438;32;20219;-66
2021/12/26 04:21:06;;;;;;;12.70;10.73;;;;;;;4.20;97.10;94438.81;4407862;32;20185;-65
2021/12/26 04:23:33;;;;;;;11.17;9.97;;;;;;;4.20;97.49;94437.00;4420007;32;20192;-66
2021/12/26 04:25:58;;;;;;;11.93;10.67;;;;;;;4.24;97.51;94442.47;4408991;32;20179;-66
2021/12/26 04:28:24;;;;;;;13.47;12.07;;;;;;;4.21;97.83;94448.28;4414117;32;20396;-65
2021/12/26 04:30:49;;;;;;;11.63;10.43;;;;;;;4.27;98.08;94441.94;4407316;32;20246;-65
2021/12/26 04:33:15;;;;;;;10.80;9.67;;;;;;;4.25;97.88;94446.66;4407110;32;20203;-66
2021/12/26 04:35:40;;;;;;;11.77;10.47;;;;;;;4.43;97.63;94443.38;4406929;32;20199;-66
2021/12/26 04:38:06;;;;;;;10.93;9.80;;;;;;;4.38;97.20;94443.41;4417307;32;20189;-66
2021/12/26 04:40:31;;;;;;;11.43;10.23;;;;;;;4.42;97.36;94441.78;4418472;32;20200;-66
2021/12/26 04:42:57;;;;;;;11.80;9.50;;;;;;;4.42;96.95;94444.41;4412849;32;20214;-66
2021/12/26 04:45:23;;;;;;;12.30;9.60;;;;;;;4.54;96.90;94441.44;4411765;32;20207;-65
2021/12/26 04:47:52;;;;;;;11.47;9.73;;;;;;;4.46;96.38;94440.19;4414136;32;20245;-65
2021/12/26 04:50:24;;;;;;;11.27;10.03;;;;;;;4.70;95.75;94443.66;4406906;32;20272;-66
2021/12/26 04:52:50;;;;;;;10.33;9.33;;;;;;;4.76;95.28;94439.91;4409824;32;20294;-66
2021/12/26 04:55:19;;;;;;;11.63;9.27;;;;;;;4.76;95.11;94439.91;4405882;32;20292;-66
2021/12/26 04:57:45;;;;;;;11.40;9.60;;;;;;;4.72;95.21;94441.53;4415669;32;20274;-66
2021/12/26 05:00:14;;;;;;;11.00;9.87;;;;;;;4.88;94.79;94442.16;4407333;32;20427;-66
2021/12/26 05:02:40;;;;;;;10.17;9.17;;;;;;;4.81;95.02;94442.47;4416061;32;20241;-66
2021/12/26 05:05:07;;;;;;;9.73;8.83;;;;;;;4.92;94.72;94445.00;4408778;32;20302;-66
2021/12/26 05:07:34;;;;;;;9.77;8.87;;;;;;;4.89;93.96;94440.31;4410099;32;20200;-66
2021/12/26 05:09:59;;;;;;;9.83;8.83;;;;;;;4.77;94.58;94449.38;4412174;32;20288;-66
2021/12/26 05:12:25;;;;;;;9.37;8.47;;;;;;;4.80;94.41;94443.53;4411178;32;20301;-66
2021/12/26 05:14:51;;;;;;;9.07;8.20;;;;;;;4.98;93.82;94451.78;4413500;32;20289;-66
2021/12/26 05:17:17;;;;;;;9.60;8.60;;;;;;;4.88;93.78;94446.63;4409757;32;20200;-66
2021/12/26 05:19:42;;;;;;;9.60;8.70;;;;;;;4.53;94.16;94451.16;4415005;32;20270;-66
2021/12/26 05:22:07;;;;;;;9.33;8.43;;;;;;;4.46;94.89;94451.47;4420317;32;20232;-66
2021/12/26 05:24:33;;;;;;;9.20;8.33;;;;;;;4.55;95.19;94451.69;4413576;32;20188;-65
2021/12/26 05:26:58;;;;;;;9.47;8.63;;;;;;;4.64;94.94;94452.63;4405131;32;20268;-66
2021/12/26 05:29:23;;;;;;;9.87;8.87;;;;;;;4.56;94.96;94449.84;4408085;32;20328;-66
2021/12/26 05:31:49;;;;;;;10.40;9.30;;;;;;;4.47;95.32;94454.88;4406102;32;20236;-66
2021/12/26 05:34:14;;;;;;;10.43;9.27;;;;;;;4.54;95.04;94455.34;4418024;32;20210;-65
2021/12/26 05:36:39;;;;;;;9.80;8.90;;;;;;;4.66;94.50;94447.09;4405775;32;20235;-65
2021/12/26 05:39:05;;;;;;;9.57;8.67;;;;;;;4.74;93.96;94447.28;4411695;32;20260;-65
2021/12/26 05:41:32;;;;;;;9.30;8.50;;;;;;;4.71;93.81;94453.09;4411119;32;20199;-65
2021/12/26 05:43:58;;;;;;;9.17;8.27;;;;;;;4.69;93.62;94447.31;4407104;32;20188;-65
2021/12/26 05:46:24;;;;;;;9.50;8.37;;;;;;;4.58;93.82;94455.56;4413792;32;23651;-65
2021/12/26 05:48:50;;;;;;;8.53;7.83;;;;;;;4.53;94.11;94451.16;4415146;32;20227;-65
2021/12/26 05:51:15;;;;;;;8.43;7.63;;;;;;;4.46;94.12;94454.09;4404499;32;20176;-66
2021/12/26 05:53:40;;;;;;;8.30;7.67;;;;;;;4.26;94.32;94461.38;4405027;32;20200;-66
2021/12/26 05:56:06;;;;;;;7.33;6.73;;;;;;;4.16;94.56;94453.59;4417087;32;20187;-66
2021/12/26 05:58:31;;;;;;;8.37;7.57;;;;;;;4.34;94.67;94451.06;4417161;32;20191;-65
2021/12/26 06:00:56;;;;;;;8.43;7.63;;;;;;;4.25;94.46;94459.78;4419983;32;20259;-65
2021/12/26 06:03:21;;;;;;;8.17;7.50;;;;;;;4.34;93.98;94456.31;4419646;32;20188;-65
2021/12/26 06:05:47;;;;;;;8.17;7.47;;;;;;;4.34;94.04;94452.91;4413982;32;20195;-66
2021/12/26 06:08:12;;;;;;;8.63;7.93;;;;;;;4.42;93.67;94450.47;4410731;32;20203;-66
2021/12/26 06:10:37;;;;;;;8.00;7.20;;;;;;;4.48;93.72;94453.81;4417874;32;20203;-66
2021/12/26 06:13:03;;;;;;;7.83;6.87;;;;;;;4.57;93.26;94457.44;4410384;32;20180;-66
2021/12/26 06:15:28;;;;;;;7.53;6.83;;;;;;;4.55;92.71;94453.50;4409244;32;20239;-66
2021/12/26 06:17:54;;;;;;;8.23;7.43;;;;;;;4.55;92.30;94459.56;4413591;32;20305;-66
2021/12/26 06:20:19;;;;;;;7.97;7.17;;;;;;;4.59;92.40;94457.91;4419935;32;20410;-65
2021/12/26 06:22:46;;;;;;;7.73;7.03;;;;;;;4.59;92.39;94454.50;4419599;32;20214;-66
2021/12/26 06:25:13;;;;;;;8.00;7.30;;;;;;;4.59;92.22;94460.53;4406727;32;20210;-66
2021/12/26 06:27:38;;;;;;;8.30;7.60;;;;;;;4.54;91.97;94462.44;4405653;32;20279;-65
2021/12/26 06:30:06;;;;;;;7.70;6.90;;;;;;;4.49;92.30;94468.53;4420529;32;20272;-66
2021/12/26 06:32:31;;;;;;;7.97;7.27;;;;;;;4.27;93.36;94468.19;4432007;32;20191;-66
2021/12/26 06:34:56;;;;;;;8.80;8.00;;;;;;;4.52;93.02;94470.59;4410990;32;20275;-66
2021/12/26 06:37:22;;;;;;;8.03;7.27;;;;;;;4.37;92.53;94468.88;4417868;32;20183;-66
2021/12/26 06:39:47;;;;;;;8.57;7.77;;;;;;;4.42;93.05;94462.81;4409528;32;20180;-65
2021/12/26 06:42:12;;;;;;;8.67;7.90;;;;;;;4.45;92.84;94467.50;4403942;32;20195;-66
2021/12/26 06:44:38;;;;;;;7.80;7.20;;;;;;;4.46;92.50;94469.06;4407255;32;20188;-65
2021/12/26 06:47:05;;;;;;;8.90;8.03;;;;;;;4.44;92.77;94473.81;4418747;32;20212;-65
2021/12/26 06:49:30;;;;;;;8.90;8.00;;;;;;;4.20;92.85;94473.72;4405512;32;20184;-65
2021/12/26 06:51:55;;;;;;;9.40;8.50;;;;;;;4.29;93.21;94476.56;4405701;32;20289;-65
2021/12/26 06:54:21;;;;;;;9.20;8.40;;;;;;;4.35;93.01;94475.47;4405982;32;20188;-66
2021/12/26 06:56:46;;;;;;;8.70;7.73;;;;;;;4.31;92.88;94471.81;4417451;32;20199;-65
2021/12/26 06:59:11;;;;;;;9.10;8.20;;;;;;;4.26;93.21;94477.09;4417986;32;20188;-65
2021/12/26 07:01:37;;;;;;;7.63;6.97;;;;;;;4.26;93.24;94477.09;4413366;32;20180;-65
2021/12/26 07:04:02;;;;;;;9.70;8.70;;;;;;;4.28;93.15;94488.13;4419758;32;20213;-65
2021/12/26 07:06:28;;;;;;;8.93;8.07;;;;;;;4.38;93.37;94480.16;4407485;32;20203;-66
2021/12/26 07:08:53;;;;;;;8.67;7.97;;;;;;;4.34;93.57;94479.94;4419167;32;20289;-65
2021/12/26 07:11:18;;;;;;;7.80;7.10;;;;;;;4.38;92.96;94488.81;4422829;32;20246;-65
2021/12/26 07:13:45;;;;;;;8.27;7.50;;;;;;;4.48;92.25;94483.50;4420264;32;20208;-65
2021/12/26 07:16:10;;;;;;;7.90;7.20;;;;;;;4.28;93.07;94491.53;4408168;32;20227;-66
2021/12/26 07:18:35;;;;;;;7.97;7.20;;;;;;;4.43;93.16;94485.38;4414933;32;20322;-65
2021/12/26 07:21:01;;;;;;;8.00;7.27;;;;;;;4.46;92.26;94493.50;4409898;32;20203;-65
2021/12/26 07:23:26;;;;;;;7.27;6.57;;;;;;;4.43;92.14;94490.63;4418772;32;20172;-65
2021/12/26 07:25:51;;;;;;;7.80;7.00;;;;;;;4.46;91.88;94493.50;4414296;32;20184;-65
2021/12/26 07:28:17;;;;;;;8.17;7.47;;;;;;;4.61;91.79;94500.44;4409243;32;20217;-65
2021/12/26 07:30:42;;;;;;;7.60;6.90;;;;;;;4.68;91.31;94506.19;4421323;32;20179;-66
2021/12/26 07:33:07;;;;;;;8.30;7.50;;;;;;;4.57;91.21;94504.72;4417931;32;20184;-66
2021/12/26 07:35:33;;;;;;;7.70;7.00;;;;;;;4.50;91.37;94509.47;4413912;32;20180;-65
2021/12/26 07:37:58;;;;;;;7.63;7.03;;;;;;;4.49;91.26;94513.16;4406739;32;20258;-65
2021/12/26 07:40:24;;;;;;;8.23;7.53;;;;;;;4.21;91.94;94516.50;4405832;32;20263;-66
2021/12/26 07:42:50;;;;;;;8.17;7.47;;;;;;;4.51;91.66;94511.06;4418960;32;20183;-66
2021/12/26 07:45:15;;;;;;;8.17;7.47;;;;;;;4.56;91.28;94523.38;4416207;32;20291;-66
2021/12/26 07:47:41;;;;;;;7.70;7.00;;;;;;;4.49;91.36;94513.16;4414557;32;20219;-65
2021/12/26 07:50:07;;;;;;;8.17;7.47;;;;;;;4.41;91.65;94524.25;4416727;32;20187;-65
2021/12/26 07:52:37;;;;;;;7.97;7.27;;;;;;;4.32;92.28;94525.91;4418367;32;20202;-66
2021/12/26 07:55:03;;;;;;;6.90;6.40;;;;;;;4.30;92.49;94523.53;4407312;32;20180;-66
2021/12/26 07:57:29;;;;;;;7.60;6.90;;;;;;;4.45;91.77;94527.91;4406121;32;20275;-66
2021/12/26 07:59:54;;;;;;;7.30;6.67;;;;;;;4.44;91.70;94526.31;4406115;32;20381;-66
2021/12/26 08:02:20;;;;;;;8.20;7.50;;;;;;;4.26;91.99;94529.59;4420511;32;20465;-66
2021/12/26 08:04:47;;;;;;;7.43;6.83;;;;;;;4.26;92.92;94526.97;4411309;32;20202;-66
2021/12/26 08:07:12;;;;;;;7.53;6.83;;;;;;;4.40;92.23;94526.09;4407989;32;20184;-66
2021/12/26 08:09:38;;;;;;;6.87;6.27;;;;;;;4.31;91.96;94533.00;4421168;32;20309;-65
2021/12/26 08:12:04;;;;;;;8.63;7.83;;;;;;;4.27;91.99;94537.22;4420801;32;20180;-66
2021/12/26 08:14:29;;;;;;;7.03;6.53;;;;;;;4.07;92.89;94527.63;4411855;32;20233;-66
2021/12/26 08:16:54;;;;;;;7.77;7.17;;;;;;;4.27;92.12;94531.97;4418933;32;20315;-66
2021/12/26 08:19:20;;;;;;;8.50;7.63;;;;;;;4.22;92.23;94531.19;4411583;32;20294;-66
2021/12/26 08:21:45;;;;;;;8.20;7.50;;;;;;;4.47;91.90;94531.03;4403151;32;20195;-66
2021/12/26 08:24:10;;;;;;;7.87;7.17;;;;;;;4.53;91.21;94531.78;4409890;32;20249;-66
2021/12/26 08:26:36;;;;;;;7.43;6.73;;;;;;;4.49;91.08;94534.97;4408142;32;20188;-66
2021/12/26 08:29:02;;;;;;;7.30;6.67;;;;;;;4.52;91.01;94535.47;4414517;32;20184;-66
2021/12/26 08:31:28;;;;;;;7.63;7.03;;;;;;;4.65;90.82;94534.84;4413396;32;20183;-66
2021/12/26 08:33:54;;;;;;;8.37;7.57;;;;;;;4.61;90.61;94539.06;4413053;32;20172;-65
2021/12/26 08:36:21;;;;;;;8.00;7.17;;;;;;;4.65;90.82;94535.63;4405263;32;20283;-66
2021/12/26 08:38:47;;;;;;;7.63;6.93;;;;;;;4.64;91.10;94543.75;4415870;32;20191;-66
2021/12/26 08:41:12;;;;;;;7.97;7.27;;;;;;;4.73;90.88;94535.03;4417311;32;20283;-66
2021/12/26 08:43:38;;;;;;;7.77;7.13;;;;;;;4.61;91.08;94542.47;4414081;32;20200;-66
2021/12/26 08:46:06;;;;;;;7.30;6.70;;;;;;;4.57;91.87;94541.47;4409135;32;20187;-65
2021/12/26 08:48:31;;;;;;;7.57;6.90;;;;;;;4.68;91.01;94548.19;4420541;32;20254;-66
2021/12/26 08:50:57;;;;;;;8.20;7.50;;;;;;;4.63;91.36;94539.56;4417649;32;20283;-66
2021/12/26 08:53:27;;;;;;;7.17;6.60;;;;;;;4.58;91.07;94548.25;4404351;32;20225;-66
2021/12/26 08:55:53;;;;;;;9.03;7.73;;;;;;;4.65;91.16;94540.88;4403158;32;20184;-66
2021/12/26 08:58:19;;;;;;;7.87;7.17;;;;;;;4.51;92.00;94544.41;4416773;32;20351;-66
2021/12/26 09:00:45;;;;;;;7.77;7.17;;;;;;;4.53;92.18;94550.97;4413093;32;20287;-66
2021/12/26 09:03:10;;;;;;;7.07;6.47;;;;;;;4.38;92.73;94548.41;4412695;32;20239;-66
2021/12/26 09:05:36;;;;;;;7.23;6.63;;;;;;;4.31;93.22;94553.22;4409545;32;20353;-66
2021/12/26 09:08:02;;;;;;;6.83;6.30;;;;;;;4.47;92.88;94554.66;4409607;32;20188;-66
2021/12/26 09:10:28;;;;;;;7.70;7.10;;;;;;;4.55;92.62;94553.31;4416796;32;20248;-66
2021/12/26 09:12:54;;;;;;;6.80;6.30;;;;;;;4.38;93.46;94558.91;4405701;32;20362;-66
2021/12/26 09:15:21;;;;;;;7.53;6.83;;;;;;;4.42;93.88;94562.56;4417855;32;20329;-66
2021/12/26 09:17:46;;;;;;;7.40;6.80;;;;;;;4.49;93.42;94573.56;4417997;32;20238;-66
2021/12/26 09:20:12;;;;;;;7.10;6.50;;;;;;;4.26;93.52;94569.78;4405318;32;20295;-66
2021/12/26 09:22:38;;;;;;;7.13;6.53;;;;;;;4.17;94.21;94566.13;4407810;32;20228;-66
2021/12/26 09:25:03;;;;;;;7.07;6.47;;;;;;;4.12;94.60;94563.56;4409375;32;20210;-66
2021/12/26 09:27:29;;;;;;;6.90;6.13;;;;;;;4.17;94.91;94562.72;4415499;32;20228;-66
2021/12/26 09:29:54;;;;;;;6.70;6.17;;;;;;;4.39;94.33;94561.28;4409366;32;20293;-66
2021/12/26 09:32:19;;;;;;;6.93;6.40;;;;;;;4.39;94.06;94563.12;4415624;32;20214;-66
2021/12/26 09:34:45;;;;;;;7.53;6.87;;;;;;;4.61;93.27;94558.22;4414270;32;20191;-66
2021/12/26 09:37:11;;;;;;;6.37;5.87;;;;;;;4.65;93.15;94561.09;4413832;32;20219;-66
2021/12/26 09:39:37;;;;;;;7.77;7.03;;;;;;;4.78;92.50;94565.75;4417821;32;20203;-66
2021/12/26 09:42:03;;;;;;;6.80;6.20;;;;;;;4.75;92.63;94561.03;4412006;32;20294;-66
2021/12/26 09:44:29;;;;;;;7.17;6.67;;;;;;;4.82;92.68;94557.00;4417071;32;20389;-66
2021/12/26 09:46:54;;;;;;;7.80;6.97;;;;;;;4.63;93.40;94561.38;4407783;32;20259;-66
2021/12/26 09:49:21;;;;;;;8.40;7.70;;;;;;;4.54;94.19;94560.41;4416182;32;20183;-66
2021/12/26 09:51:49;;;;;;;8.47;7.67;;;;;;;4.60;94.42;94561.91;4413461;32;20264;-66
2021/12/26 09:54:16;;;;;;;7.33;6.73;;;;;;;4.60;93.77;94561.91;4413671;32;20275;-66
2021/12/26 09:56:42;;;;;;;8.57;7.87;;;;;;;4.43;94.36;94557.03;4409552;32;20290;-66
2021/12/26 09:59:18;;;;;;;7.80;7.10;;;;;;;4.30;95.31;94551.63;4411653;32;20279;-66
2021/12/26 10:01:47;;;;;;;7.40;6.80;;;;;;;4.46;95.36;94545.22;4420104;32;20244;-66
2021/12/26 10:04:26;;;;;;;7.87;7.27;;;;;;;4.32;95.56;94550.31;4423471;32;20278;-66
2021/12/26 10:06:57;;;;;;;7.07;6.57;;;;;;;4.52;95.51;94546.75;4419851;32;20333;-66
2021/12/26 10:09:23;;;;;;;6.97;6.47;;;;;;;4.69;94.78;94544.53;4416103;32;20295;-66
2021/12/26 10:11:51;;;;;;;7.47;6.70;;;;;;;4.70;95.02;94540.06;4404839;32;20294;-66
2021/12/26 10:14:25;;;;;;;7.30;6.70;;;;;;;4.56;94.55;94533.88;4411052;32;20210;-66
2021/12/26 10:16:57;;;;;;;7.33;6.83;;;;;;;4.50;95.35;94538.38;4406351;32;20342;-66
2021/12/26 10:19:23;;;;;;;7.37;6.77;;;;;;;4.66;95.65;94525.91;4409655;32;20279;-66
2021/12/26 10:21:50;;;;;;;7.00;6.50;;;;;;;4.73;95.57;94540.28;4410215;32;20279;-66
2021/12/26 10:24:21;;;;;;;7.87;7.27;;;;;;;4.94;94.55;94526.97;4412010;32;20275;-66
2021/12/26 10:26:59;;;;;;;6.57;6.07;;;;;;;5.06;93.63;94532.62;4410596;32;20344;-66
2021/12/26 10:29:30;;;;;;;7.10;6.50;;;;;;;5.06;93.18;94530.00;4411871;32;20381;-66
2021/12/26 10:31:57;;;;;;;6.93;6.43;;;;;;;5.16;92.80;94535.94;4408665;32;20279;-66
2021/12/26 10:34:27;;;;;;;7.20;6.50;;;;;;;5.23;92.67;94529.56;4421275;32;20293;-66
2021/12/26 10:36:54;;;;;;;7.13;6.60;;;;;;;5.15;93.20;94541.47;4411663;32;20326;-66
2021/12/26 10:39:24;;;;;;;7.03;6.43;;;;;;;5.24;92.92;94531.91;4410395;32;20291;-66
2021/12/26 10:41:53;;;;;;;7.10;6.47;;;;;;;5.25;93.49;94538.75;4407005;32;20413;-66
2021/12/26 10:44:27;;;;;;;7.37;6.80;;;;;;;5.17;93.96;94531.47;4408303;32;20380;-66
2021/12/26 10:46:57;;;;;;;7.67;7.07;;;;;;;5.35;93.64;94529.97;4407252;32;20324;-66
2021/12/26 10:49:35;;;;;;;7.20;6.60;;;;;;;5.32;93.99;94531.31;4408925;32;20275;-66
2021/12/26 10:52:01;;;;;;;7.23;6.70;;;;;;;5.32;94.46;94531.31;4417389;32;20292;-66
2021/12/26 10:54:31;;;;;;;9.13;6.83;;;;;;;5.45;93.78;94533.25;4422358;32;20291;-66
2021/12/26 10:57:13;;;;;;;7.43;6.73;;;;;;;5.50;93.52;94530.59;4415948;32;20187;-66
2021/12/26 10:59:40;;;;;;;7.03;6.50;;;;;;;5.52;93.33;94540.81;4407340;32;20271;-66
2021/12/26 11:02:06;;;;;;;6.73;6.13;;;;;;;5.40;93.26;94532.56;4414334;32;20299;-66
2021/12/26 11:04:33;;;;;;;7.67;6.80;;;;;;;5.55;92.76;94534.22;4421806;32;20274;-66
2021/12/26 11:07:01;;;;;;;7.13;6.53;;;;;;;5.60;92.84;94534.16;4422736;32;20212;-66
2021/12/26 11:09:27;;;;;;;7.80;7.10;;;;;;;5.60;92.85;94532.31;4421744;32;20279;-66
2021/12/26 11:12:00;;;;;;;6.67;6.17;;;;;;;5.53;93.54;94532.66;4423169;32;20266;-66
2021/12/26 11:14:25;;;;;;;6.63;6.03;;;;;;;5.45;94.24;94533.25;4412845;32;20395;-66
2021/12/26 11:16:51;;;;;;;6.80;6.30;;;;;;;5.53;94.47;94524.75;4412653;32;20322;-66
2021/12/26 11:19:16;;;;;;;6.73;6.20;;;;;;;5.70;93.88;94521.66;4415952;32;20184;-66
2021/12/26 11:21:42;;;;;;;8.20;7.50;;;;;;;5.56;93.91;94515.53;4416306;32;20260;-66
2021/12/26 11:24:07;;;;;;;7.60;6.90;;;;;;;5.53;94.16;94514.25;4419264;32;20259;-66
2021/12/26 11:26:33;;;;;;;6.67;6.17;;;;;;;5.60;94.29;94515.75;4415077;32;20297;-66
2021/12/26 11:28:58;;;;;;;6.70;6.30;;;;;;;5.57;94.79;94511.06;4408397;32;20221;-66
2021/12/26 11:31:28;;;;;;;6.90;6.30;;;;;;;5.73;94.35;94517.69;4417875;32;20189;-66
2021/12/26 11:34:04;;;;;;;9.90;5.87;;;;;;;5.71;94.54;94522.44;4409704;32;20203;-66
2021/12/26 11:36:32;;;;;;;6.90;6.40;;;;;;;5.62;94.35;94509.12;4419530;32;20331;-66
2021/12/26 11:38:59;;;;;;;7.50;6.80;;;;;;;5.75;94.30;94512.94;4413685;32;20302;-66
2021/12/26 11:41:40;;;;;;;6.90;6.17;;;;;;;5.68;94.55;94517.75;4409716;32;20283;-66